createdAt,value
2018-09-08T00:00:32.173Z,32.18
2018-09-08T00:03:03.770Z,31.11
2018-09-08T00:05:34.900Z,30.66
2018-09-08T00:08:05.549Z,30.62
2018-09-08T00:10:36.104Z,30.64
2018-09-08T00:13:06.992Z,31.01
2018-09-08T00:15:42.836Z,30.74
2018-09-08T00:18:18.348Z,32.40
2018-09-08T00:20:54.044Z,32.29
2018-09-08T00:23:29.560Z,32.70
2018-09-08T00:26:05.142Z,34.62
2018-09-08T00:28:43.557Z,33.23
2018-09-08T00:31:17.916Z,33.59
2018-09-08T00:33:49.004Z,33.44
2018-09-08T00:36:19.972Z,33.44
2018-09-08T00:38:50.980Z,32.43
2018-09-08T00:41:24.389Z,33.04
2018-09-08T00:43:58.752Z,33.72
2018-09-08T00:46:34.383Z,33.00
2018-09-08T00:49:08.164Z,33.95
2018-09-08T00:51:43.646Z,34.26
2018-09-08T00:54:17.937Z,32.24
2018-09-08T00:56:48.684Z,31.72
2018-09-08T00:59:23.461Z,33.49
2018-09-08T01:01:56.622Z,33.86
2018-09-08T01:04:28.051Z,34.44
2018-09-08T01:06:58.994Z,32.77
2018-09-08T01:09:29.654Z,34.16
2018-09-08T01:12:00.290Z,34.96
2018-09-08T01:14:30.745Z,35.34
2018-09-08T01:17:01.585Z,36.13
2018-09-08T01:19:32.528Z,35.95
2018-09-08T01:22:04.453Z,36.10
2018-09-08T01:24:34.995Z,34.82
2018-09-08T01:27:05.824Z,33.35
2018-09-08T01:29:36.473Z,34.47
2018-09-08T01:32:07.332Z,34.96
2018-09-08T01:34:38.049Z,33.66
2018-09-08T01:37:08.923Z,34.56
2018-09-08T01:39:39.618Z,33.78
2018-09-08T01:42:10.337Z,35.71
2018-09-08T01:44:40.980Z,35.25
2018-09-08T01:47:11.680Z,35.34
2018-09-08T01:49:42.287Z,33.29
2018-09-08T01:52:13.044Z,34.24
2018-09-08T01:54:43.649Z,33.90
2018-09-08T01:57:14.288Z,34.15
2018-09-08T01:59:45.057Z,33.66
2018-09-08T02:02:16.129Z,33.92
2018-09-08T02:04:46.816Z,33.74
2018-09-08T02:07:17.528Z,33.96
2018-09-08T02:09:47.909Z,33.08
2018-09-08T02:12:18.826Z,33.83
2018-09-08T02:14:49.476Z,34.08
2018-09-08T02:17:20.130Z,33.87
2018-09-08T02:19:51.385Z,35.15
2018-09-08T02:22:23.053Z,37.51
2018-09-08T02:24:54.101Z,36.38
2018-09-08T02:27:24.848Z,36.90
2018-09-08T02:29:55.400Z,37.32
2018-09-08T02:32:26.413Z,37.52
2018-09-08T02:34:57.901Z,36.24
2018-09-08T02:37:28.709Z,35.52
2018-09-08T02:40:01.773Z,34.28
2018-09-08T02:42:42.718Z,34.49
2018-09-08T02:45:13.365Z,36.32
2018-09-08T02:47:44.157Z,36.52
2018-09-08T02:50:34.881Z,36.56
2018-09-08T02:53:03.988Z,35.58
2018-09-08T02:55:32.667Z,36.10
2018-09-08T02:58:01.041Z,36.51
2018-09-08T03:00:29.837Z,35.62
2018-09-08T03:02:58.174Z,35.57
2018-09-08T03:05:26.381Z,36.67
2018-09-08T03:07:54.818Z,36.43
2018-09-08T03:10:23.337Z,36.31
2018-09-08T03:12:51.747Z,35.26
2018-09-08T03:15:20.444Z,35.18
2018-09-08T03:17:48.692Z,36.88
2018-09-08T03:20:16.857Z,34.97
2018-09-08T03:22:45.245Z,34.86
2018-09-08T03:25:13.513Z,34.48
2018-09-08T03:27:41.685Z,34.74
2018-09-08T03:30:10.065Z,34.97
2018-09-08T03:32:38.246Z,35.93
2018-09-08T03:35:06.592Z,36.11
2018-09-08T03:37:34.943Z,36.46
2018-09-08T03:40:03.116Z,36.91
2018-09-08T03:42:31.187Z,37.60
2018-09-08T03:44:59.567Z,37.09
2018-09-08T03:47:27.843Z,36.67
2018-09-08T03:49:55.988Z,35.11
2018-09-08T03:52:24.608Z,34.54
2018-09-08T03:54:52.896Z,33.27
2018-09-08T03:57:21.048Z,34.74
2018-09-08T03:59:49.353Z,35.45
2018-09-08T04:02:17.493Z,34.89
2018-09-08T04:04:48.016Z,33.59
2018-09-08T04:07:18.745Z,31.62
2018-09-08T04:09:49.389Z,32.71
2018-09-08T04:12:20.173Z,31.93
2018-09-08T04:14:50.883Z,34.21
2018-09-08T04:17:21.620Z,33.73
2018-09-08T04:19:52.292Z,34.68
2018-09-08T04:22:27.292Z,35.42
2018-09-08T04:24:57.692Z,36.15
2018-09-08T04:27:28.385Z,35.02
2018-09-08T04:29:59.090Z,34.79
2018-09-08T04:32:30.695Z,34.98
2018-09-08T04:35:01.358Z,35.53
2018-09-08T04:37:32.161Z,34.99
2018-09-08T04:40:02.928Z,35.95
2018-09-08T04:42:33.761Z,35.37
2018-09-08T04:45:04.480Z,35.49
2018-09-08T04:47:35.264Z,33.70
2018-09-08T04:50:05.860Z,34.27
2018-09-08T04:52:36.538Z,33.30
2018-09-08T04:55:07.440Z,32.44
2018-09-08T04:57:38.156Z,30.13
2018-09-08T05:00:09.814Z,29.55
2018-09-08T05:02:40.533Z,28.32
2018-09-08T05:05:11.434Z,30.23
2018-09-08T05:07:42.313Z,31.01
2018-09-08T05:10:12.989Z,30.11
2018-09-08T05:12:43.422Z,30.94
2018-09-08T05:15:14.129Z,30.94
2018-09-08T05:17:44.962Z,31.10
2018-09-08T05:20:15.693Z,31.13
2018-09-08T05:22:46.498Z,31.33
2018-09-08T05:25:17.275Z,29.97
2018-09-08T05:27:48.037Z,28.89
2018-09-08T05:30:18.682Z,29.56
2018-09-08T05:32:49.578Z,32.32
2018-09-08T05:35:20.250Z,32.54
2018-09-08T05:37:51.064Z,32.95
2018-09-08T05:40:21.665Z,33.00
2018-09-08T05:42:52.524Z,31.38
2018-09-08T05:45:23.013Z,31.06
2018-09-08T05:47:54.103Z,29.83
2018-09-08T05:50:24.758Z,30.55
2018-09-08T05:52:55.593Z,29.20
2018-09-08T05:55:26.381Z,29.25
2018-09-08T05:57:57.197Z,28.54
2018-09-08T06:00:27.632Z,27.44
2018-09-08T06:02:58.575Z,27.97
2018-09-08T06:05:29.204Z,26.84
2018-09-08T06:07:59.958Z,25.83
2018-09-08T06:10:30.553Z,26.93
2018-09-08T06:13:11.584Z,27.16
2018-09-08T06:15:47.484Z,25.55
2018-09-08T06:18:17.951Z,27.00
2018-09-08T06:20:48.485Z,27.09
2018-09-08T06:23:19.177Z,27.27
2018-09-08T06:25:49.776Z,27.56
2018-09-08T06:28:20.623Z,28.00
2018-09-08T06:30:51.317Z,27.45
2018-09-08T06:33:22.072Z,25.12
2018-09-08T06:35:52.769Z,26.14
2018-09-08T06:38:23.838Z,25.60
2018-09-08T06:40:54.490Z,25.77
2018-09-08T06:43:25.289Z,26.46
2018-09-08T06:45:55.826Z,26.05
2018-09-08T06:48:26.465Z,25.26
2018-09-08T06:50:57.025Z,25.31
2018-09-08T06:53:27.765Z,25.93
2018-09-08T06:55:58.491Z,25.62
2018-09-08T06:58:37.709Z,25.21
2018-09-08T07:01:09.035Z,25.01
2018-09-08T07:03:39.881Z,25.17
2018-09-08T07:06:12.562Z,23.40
2018-09-08T07:08:43.383Z,24.39
2018-09-08T07:11:14.132Z,23.26
2018-09-08T07:13:44.857Z,23.09
2018-09-08T07:16:15.491Z,24.59
2018-09-08T07:18:52.006Z,22.32
2018-09-08T07:21:22.637Z,23.80
2018-09-08T07:23:53.291Z,22.47
2018-09-08T07:26:23.760Z,22.74
2018-09-08T07:28:54.622Z,21.98
2018-09-08T07:31:25.204Z,22.67
2018-09-08T07:33:55.741Z,23.99
2018-09-08T07:36:26.417Z,21.94
2018-09-08T07:38:57.144Z,23.58
2018-09-08T07:41:27.783Z,23.25
2018-09-08T07:43:58.604Z,23.20
2018-09-08T07:46:29.213Z,23.28
2018-09-08T07:49:00.018Z,23.04
2018-09-08T07:51:30.624Z,20.87
2018-09-08T07:54:01.533Z,22.05
2018-09-08T07:56:32.193Z,22.20
2018-09-08T07:59:03.016Z,21.40
2018-09-08T08:01:33.566Z,20.93
2018-09-08T08:04:04.322Z,21.43
2018-09-08T08:06:35.254Z,19.72
2018-09-08T08:09:07.303Z,20.17
2018-09-08T08:11:37.974Z,19.73
2018-09-08T08:14:08.772Z,18.72
2018-09-08T08:16:39.706Z,17.78
2018-09-08T08:19:10.460Z,19.34
2018-09-08T08:21:41.112Z,19.07
2018-09-08T08:24:12.077Z,18.62
2018-09-08T08:26:42.785Z,19.04
2018-09-08T08:29:13.653Z,18.58
2018-09-08T08:31:44.252Z,21.63
2018-09-08T08:34:14.944Z,20.76
2018-09-08T08:36:45.832Z,19.81
2018-09-08T08:39:16.619Z,20.43
2018-09-08T08:41:47.293Z,19.62
2018-09-08T08:44:18.430Z,19.19
2018-09-08T08:46:49.222Z,19.41
2018-09-08T08:49:20.228Z,18.35
2018-09-08T08:52:07.069Z,18.99
2018-09-08T08:54:49.021Z,18.10
2018-09-08T08:57:19.618Z,17.08
2018-09-08T08:59:50.374Z,17.67
2018-09-08T09:02:21.045Z,17.97
2018-09-08T09:04:51.771Z,17.56
2018-09-08T09:07:22.336Z,17.96
2018-09-08T09:09:53.309Z,16.75
2018-09-08T09:12:24.073Z,17.65
2018-09-08T09:14:55.019Z,16.32
2018-09-08T09:17:26.036Z,16.83
2018-09-08T09:20:13.005Z,18.24
2018-09-08T09:22:59.544Z,17.92
2018-09-08T09:25:30.443Z,17.89
2018-09-08T09:28:01.077Z,17.55
2018-09-08T09:30:31.907Z,18.55
2018-09-08T09:33:02.612Z,17.51
2018-09-08T09:35:33.466Z,16.39
2018-09-08T09:38:04.140Z,15.98
2018-09-08T09:40:34.941Z,16.40
2018-09-08T09:43:05.617Z,15.48
2018-09-08T09:45:36.705Z,15.65
2018-09-08T09:48:07.422Z,15.57
2018-09-08T09:50:39.145Z,16.14
2018-09-08T09:53:09.848Z,15.48
2018-09-08T09:55:41.005Z,14.66
2018-09-08T09:58:13.487Z,12.69
2018-09-08T10:00:49.233Z,13.28
2018-09-08T10:03:19.769Z,13.57
2018-09-08T10:05:50.561Z,16.60
2018-09-08T10:08:21.477Z,16.00
2018-09-08T10:10:52.245Z,15.84
2018-09-08T10:13:22.784Z,16.47
2018-09-08T10:15:53.447Z,15.76
2018-09-08T10:18:24.017Z,16.05
2018-09-08T10:20:54.790Z,15.74
2018-09-08T10:23:25.813Z,16.65
2018-09-08T10:25:56.493Z,17.66
2018-09-08T10:28:27.309Z,16.90
2018-09-08T10:30:58.084Z,17.57
2018-09-08T10:33:28.716Z,17.13
2018-09-08T10:35:59.371Z,15.33
2018-09-08T10:38:29.999Z,16.53
2018-09-08T10:41:01.369Z,16.24
2018-09-08T10:43:36.998Z,16.50
2018-09-08T10:46:08.118Z,16.07
2018-09-08T10:48:38.903Z,16.21
2018-09-08T10:51:56.917Z,16.09
2018-09-08T10:54:27.560Z,14.77
2018-09-08T10:56:58.404Z,15.32
2018-09-08T10:59:29.304Z,15.39
2018-09-08T11:02:00.422Z,15.17
2018-09-08T11:04:31.341Z,16.07
2018-09-08T11:07:02.229Z,15.57
2018-09-08T11:09:33.233Z,14.79
2018-09-08T11:12:04.221Z,14.95
2018-09-08T11:14:35.169Z,14.26
2018-09-08T11:17:06.121Z,11.92
2018-09-08T11:19:36.889Z,13.45
2018-09-08T11:22:07.854Z,13.16
2018-09-08T11:24:38.733Z,12.88
2018-09-08T11:27:09.657Z,12.14
2018-09-08T11:29:40.264Z,12.85
2018-09-08T11:32:10.963Z,12.54
2018-09-08T11:34:41.447Z,11.04
2018-09-08T11:37:12.230Z,11.20
2018-09-08T11:39:42.919Z,12.85
2018-09-08T11:42:13.922Z,12.29
2018-09-08T11:44:44.646Z,11.97
2018-09-08T11:47:15.660Z,12.66
2018-09-08T11:49:46.286Z,12.81
2018-09-08T11:52:17.044Z,12.53
2018-09-08T11:54:47.613Z,12.08
2018-09-08T11:57:18.385Z,12.76
2018-09-08T11:59:48.957Z,13.81
2018-09-08T12:02:19.769Z,13.69
2018-09-08T12:04:50.337Z,13.26
2018-09-08T12:07:21.169Z,13.52
2018-09-08T12:09:51.805Z,13.31
2018-09-08T12:12:22.709Z,11.99
2018-09-08T12:14:53.433Z,12.89
2018-09-08T12:17:24.076Z,13.08
2018-09-08T12:19:54.644Z,13.66
2018-09-08T12:22:25.452Z,13.58
2018-09-08T12:24:56.157Z,14.87
2018-09-08T12:27:26.946Z,13.90
2018-09-08T12:29:57.577Z,15.65
2018-09-08T12:32:28.174Z,14.58
2018-09-08T12:34:58.905Z,13.75
2018-09-08T12:37:29.742Z,14.25
2018-09-08T12:40:00.405Z,15.43
2018-09-08T12:42:31.161Z,14.59
2018-09-08T12:45:01.830Z,16.24
2018-09-08T12:47:32.618Z,14.31
2018-09-08T12:50:03.336Z,13.56
2018-09-08T12:52:34.113Z,14.00
2018-09-08T12:55:04.733Z,14.37
2018-09-08T12:57:35.450Z,14.69
2018-09-08T13:00:06.241Z,14.55
2018-09-08T13:02:37.084Z,14.48
2018-09-08T13:05:08.088Z,14.27
2018-09-08T13:07:39.030Z,14.70
2018-09-08T13:10:09.828Z,14.43
2018-09-08T13:12:40.735Z,14.90
2018-09-08T13:15:11.397Z,14.85
2018-09-08T13:17:42.173Z,15.55
2018-09-08T13:20:12.813Z,14.88
2018-09-08T13:22:43.721Z,14.80
2018-09-08T13:25:14.328Z,15.00
2018-09-08T13:27:44.992Z,14.91
2018-09-08T13:30:15.589Z,15.93
2018-09-08T13:32:46.478Z,15.00
2018-09-08T13:35:17.076Z,15.58
2018-09-08T13:37:48.061Z,15.35
2018-09-08T13:40:18.835Z,15.45
2018-09-08T13:42:49.626Z,15.85
2018-09-08T13:45:21.145Z,15.87
2018-09-08T13:47:51.782Z,15.60
2018-09-08T13:50:22.310Z,15.31
2018-09-08T13:52:53.131Z,15.35
2018-09-08T13:55:24.553Z,14.27
2018-09-08T13:57:55.406Z,14.81
2018-09-08T14:00:25.957Z,13.95
2018-09-08T14:02:57.019Z,14.97
2018-09-08T14:05:27.620Z,14.33
2018-09-08T14:08:00.967Z,14.33
2018-09-08T14:10:31.868Z,15.66
2018-09-08T14:13:02.618Z,15.50
2018-09-08T14:15:33.285Z,16.04
2018-09-08T14:18:04.042Z,16.35
2018-09-08T14:20:34.576Z,17.51
2018-09-08T14:23:05.581Z,16.78
2018-09-08T14:25:36.216Z,17.28
2018-09-08T14:28:07.174Z,18.50
2018-09-08T14:30:37.877Z,19.34
2018-09-08T14:33:09.033Z,20.47
2018-09-08T14:35:39.557Z,20.25
2018-09-08T14:38:10.477Z,21.88
2018-09-08T14:40:41.137Z,21.34
2018-09-08T14:43:12.878Z,20.87
2018-09-08T14:45:43.500Z,21.24
2018-09-08T14:48:13.937Z,22.33
2018-09-08T14:50:46.171Z,21.16
2018-09-08T14:53:17.045Z,21.25
2018-09-08T14:55:47.741Z,20.06
2018-09-08T14:58:18.538Z,19.17
2018-09-08T15:00:49.203Z,18.52
2018-09-08T15:03:20.178Z,17.88
2018-09-08T15:05:50.819Z,20.91
2018-09-08T15:08:21.702Z,20.84
2018-09-08T15:10:52.308Z,20.66
2018-09-08T15:13:23.306Z,21.03
2018-09-08T15:15:54.808Z,20.54
2018-09-08T15:18:25.841Z,20.41
2018-09-08T15:20:56.434Z,17.95
2018-09-08T15:23:27.356Z,17.93
2018-09-08T15:25:57.857Z,17.71
2018-09-08T15:28:29.141Z,18.74
2018-09-08T15:30:59.624Z,17.76
2018-09-08T15:33:30.245Z,19.52
2018-09-08T15:36:00.889Z,18.88
2018-09-08T15:38:31.575Z,17.59
2018-09-08T15:41:02.322Z,18.08
2018-09-08T15:43:33.106Z,17.81
2018-09-08T15:46:03.756Z,17.93
2018-09-08T15:48:34.509Z,17.48
2018-09-08T15:51:05.221Z,18.06
2018-09-08T15:53:36.077Z,18.51
2018-09-08T15:56:06.693Z,18.42
2018-09-08T15:58:37.676Z,18.94
2018-09-08T16:01:08.180Z,19.04
2018-09-08T16:03:38.870Z,18.43
2018-09-08T16:06:09.565Z,18.97
2018-09-08T16:08:40.422Z,18.24
2018-09-08T16:11:10.908Z,18.37
2018-09-08T16:13:41.814Z,18.51
2018-09-08T16:16:12.451Z,18.74
2018-09-08T16:18:43.317Z,19.20
2018-09-08T16:21:13.859Z,19.83
2018-09-08T16:23:44.794Z,19.21
2018-09-08T16:26:15.487Z,19.51
2018-09-08T16:28:46.698Z,19.09
2018-09-08T16:31:17.474Z,19.91
2018-09-08T16:33:48.341Z,20.82
2018-09-08T16:36:18.994Z,19.60
2018-09-08T16:38:49.892Z,19.60
2018-09-08T16:41:20.666Z,20.27
2018-09-08T16:43:51.546Z,20.15
2018-09-08T16:46:22.115Z,20.87
2018-09-08T16:48:52.892Z,20.82
2018-09-08T16:51:23.529Z,20.29
2018-09-08T16:53:54.277Z,21.35
2018-09-08T16:56:24.928Z,20.61
2018-09-08T16:58:55.935Z,19.76
2018-09-08T17:01:26.610Z,20.34
2018-09-08T17:03:57.625Z,20.47
2018-09-08T17:06:28.176Z,20.58
2018-09-08T17:08:58.965Z,21.38
2018-09-08T17:11:29.645Z,20.67
2018-09-08T17:14:00.429Z,21.13
2018-09-08T17:16:31.085Z,20.49
2018-09-08T17:19:01.862Z,20.84
2018-09-08T17:21:32.481Z,20.59
2018-09-08T17:24:04.701Z,20.59
2018-09-08T17:26:35.283Z,20.85
2018-09-08T17:29:06.385Z,23.30
2018-09-08T17:31:37.045Z,24.11
2018-09-08T17:34:07.821Z,25.07
2018-09-08T17:36:38.437Z,25.76
2018-09-08T17:39:13.287Z,26.22
2018-09-08T17:41:43.761Z,26.49
2018-09-08T17:44:14.452Z,27.57
2018-09-08T17:46:44.760Z,27.34
2018-09-08T17:49:15.668Z,27.11
2018-09-08T17:51:46.365Z,28.14
2018-09-08T17:54:17.470Z,28.24
2018-09-08T17:56:48.238Z,27.36
2018-09-08T17:59:19.130Z,27.65
2018-09-08T18:01:49.825Z,26.90
2018-09-08T18:04:20.457Z,27.40
2018-09-08T18:06:51.045Z,26.54
2018-09-08T18:09:22.095Z,26.74
2018-09-08T18:11:53.037Z,25.74
2018-09-08T18:14:23.730Z,26.69
2018-09-08T18:16:54.280Z,25.94
2018-09-08T18:19:25.251Z,25.58
2018-09-08T18:21:55.885Z,25.58
2018-09-08T18:24:26.648Z,25.70
2018-09-08T18:26:57.276Z,25.26
2018-09-08T18:29:28.071Z,25.71
2018-09-08T18:31:58.793Z,26.02
2018-09-08T18:34:29.618Z,25.27
2018-09-08T18:37:00.281Z,25.62
2018-09-08T18:39:30.973Z,26.13
2018-09-08T18:42:01.650Z,25.59
2018-09-08T18:44:32.436Z,25.13
2018-09-08T18:47:03.126Z,25.65
2018-09-08T18:49:34.058Z,25.64
2018-09-08T18:52:04.701Z,26.06
2018-09-08T18:54:35.320Z,26.31
2018-09-08T18:57:05.995Z,25.59
2018-09-08T18:59:36.974Z,25.46
2018-09-08T19:02:07.718Z,24.89
2018-09-08T19:04:38.505Z,24.47
2018-09-08T19:07:09.246Z,25.40
2018-09-08T19:09:40.024Z,25.60
2018-09-08T19:12:11.025Z,24.85
2018-09-08T19:14:46.932Z,26.06
2018-09-08T19:17:17.432Z,24.96
2018-09-08T19:19:48.296Z,25.19
2018-09-08T19:22:18.765Z,25.23
2018-09-08T19:24:49.674Z,25.48
2018-09-08T19:27:20.374Z,27.25
2018-09-08T19:29:51.185Z,25.93
2018-09-08T19:32:21.845Z,26.31
2018-09-08T19:34:57.505Z,27.86
2018-09-08T19:37:28.065Z,29.04
2018-09-08T19:40:01.070Z,28.17
2018-09-08T19:42:39.413Z,27.96
2018-09-08T19:45:10.479Z,28.06
2018-09-08T19:47:46.061Z,27.16
2018-09-08T19:50:16.789Z,26.90
2018-09-08T19:52:52.420Z,27.41
2018-09-08T19:55:24.836Z,26.27
2018-09-08T19:58:00.778Z,26.33
2018-09-08T20:00:31.664Z,25.92
2018-09-08T20:03:02.306Z,26.21
2018-09-08T20:05:33.022Z,29.74
2018-09-08T20:08:03.662Z,29.13
2018-09-08T20:10:34.639Z,26.87
2018-09-08T20:13:05.599Z,26.92
2018-09-08T20:15:36.226Z,26.95
2018-09-08T20:18:06.910Z,27.43
2018-09-08T20:20:38.253Z,26.86
2018-09-08T20:23:08.824Z,28.62
2018-09-08T20:25:40.332Z,27.94
2018-09-08T20:28:10.789Z,29.58
2018-09-08T20:30:41.688Z,27.83
2018-09-08T20:33:12.272Z,28.87
2018-09-08T20:35:43.190Z,30.12
2018-09-08T20:38:13.817Z,29.93
2018-09-08T20:40:44.529Z,30.60
2018-09-08T20:43:15.264Z,30.14
2018-09-08T20:45:46.206Z,30.90
2018-09-08T20:48:16.778Z,29.74
2018-09-08T20:50:47.768Z,30.58
2018-09-08T20:53:18.340Z,30.43
2018-09-08T20:55:49.093Z,29.83
2018-09-08T20:58:19.766Z,28.87
2018-09-08T21:00:50.560Z,28.11
2018-09-08T21:03:21.178Z,29.03
2018-09-08T21:05:52.157Z,29.05
2018-09-08T21:08:22.874Z,28.54
2018-09-08T21:10:53.643Z,28.96
2018-09-08T21:13:24.326Z,30.37
2018-09-08T21:15:54.972Z,30.09
2018-09-08T21:18:25.626Z,28.97
2018-09-08T21:20:56.290Z,29.48
2018-09-08T21:23:27.229Z,29.40
2018-09-08T21:25:58.295Z,30.67
2018-09-08T21:28:28.980Z,31.06
2018-09-08T21:30:59.873Z,31.18
2018-09-08T21:33:30.562Z,31.25
2018-09-08T21:36:01.221Z,30.99
2018-09-08T21:38:31.909Z,32.37
2018-09-08T21:41:02.686Z,30.59
2018-09-08T21:43:33.325Z,31.70
2018-09-08T21:46:05.290Z,30.48
2018-09-08T21:48:35.877Z,31.43
2018-09-08T21:51:06.969Z,31.38
2018-09-08T21:53:37.593Z,31.29
2018-09-08T21:56:08.325Z,32.03
2018-09-08T21:58:39.100Z,31.76
2018-09-08T22:01:14.849Z,31.06
2018-09-08T22:03:45.515Z,30.95
2018-09-08T22:06:16.360Z,31.34
2018-09-08T22:08:46.904Z,32.29
2018-09-08T22:11:17.685Z,31.98
2018-09-08T22:13:48.278Z,32.28
2018-09-08T22:16:19.120Z,31.22
2018-09-08T22:18:49.848Z,31.05
2018-09-08T22:21:20.825Z,32.11
2018-09-08T22:23:51.228Z,32.52
2018-09-08T22:26:21.964Z,32.50
2018-09-08T22:28:52.576Z,32.78
2018-09-08T22:31:23.469Z,33.54
2018-09-08T22:33:53.949Z,34.79
2018-09-08T22:36:24.733Z,34.27
2018-09-08T22:38:55.417Z,33.06
2018-09-08T22:41:25.908Z,34.45
2018-09-08T22:43:56.561Z,34.10
2018-09-08T22:46:27.282Z,34.78
2018-09-08T22:48:57.748Z,34.39
2018-09-08T22:51:28.651Z,33.19
2018-09-08T22:53:59.317Z,34.33
2018-09-08T22:56:29.779Z,31.86
2018-09-08T22:59:00.417Z,34.15
2018-09-08T23:01:31.211Z,34.45
2018-09-08T23:04:01.825Z,34.28
2018-09-08T23:06:32.589Z,35.51
2018-09-08T23:09:03.394Z,34.99
2018-09-08T23:11:34.346Z,34.85
2018-09-08T23:14:05.003Z,34.41
2018-09-08T23:16:36.726Z,35.81
2018-09-08T23:19:07.500Z,35.65
2018-09-08T23:21:38.220Z,35.46
2018-09-08T23:24:08.812Z,34.92
2018-09-08T23:26:39.465Z,34.75
2018-09-08T23:29:10.094Z,34.04
2018-09-08T23:31:40.845Z,33.90
2018-09-08T23:34:11.344Z,34.05
2018-09-08T23:36:42.050Z,32.08
2018-09-08T23:39:13.372Z,34.21
2018-09-08T23:41:44.218Z,32.59
2018-09-08T23:44:14.665Z,33.25
2018-09-08T23:46:45.200Z,33.81
2018-09-08T23:49:15.768Z,35.00
2018-09-08T23:51:46.690Z,34.38
2018-09-08T23:54:17.197Z,34.10
2018-09-08T23:56:48.189Z,33.75
2018-09-08T23:59:18.712Z,34.12
